Kelly Field Airport (SKF/KSKF)



Flight Aircraft Arriving
CPX7344
KBWI - Baltimore/Washington International Airport
United StatesMaryland Baltimore, Maryland
Flight Aircraft Departing
CPX7328
KRFD - Chicago/Rockford International Airport
United StatesIllinois Rockford, Illinois
CPX7438
KRIV - March Air Reserve Base
United StatesCalifornia Riverside, California


Airport Information
Location: San Antonio, Texas
Coordinates: 29.3842 / -98.5811
Field Elevation: 688ft
Longest Runway: 11,592ft
ILS Approaches: YES
Landing Fees: $1,124 per flight
Jet A Price: $0.33/lbs
Charts:

Current Weather
METAR: KSKF 252156Z AUTO 05011KT 10SM BKN021 13/07 A3002 RMK AO2 BKN V SCT SLP166 T01290071 $
TAF: TAF KSKF 251800Z 2518/2624 05012KT 9999 SCT020 QNH2996INS BECMG 2602/2603 05008KT 9999 SCT014 OVC020 QNH3012INS BECMG 2605/2606 05009KT 9999 OVC014 QNH3015INS BECMG 2615/2616 06013KT 9999 BKN020 QNH3017INS BECMG 2619/2620 07006KT 9999 SCT030 QNH3015INS TX18/2521Z TN07/2613Z

Recent Arrivals
Date Flight Type Depart
11/12/2021 CPX7328 B762 Chicago/Rockford Intl (KRFD)
08/05/2021 CPX7438 B738 March Air Reserve Base (KRIV)
Recent Departures
Date Flight Type Arrive
11/17/2021 CPX7344 B762 Baltimore/Washington Intl (KBWI)
08/06/2021 CPX7344 B738 Baltimore/Washington Intl (KBWI)